Time;durP1;ratioP1;P1;durP2;ratioP2;P2;SDS_P1;SDS_P2;PMS_P1;PMS_P2;Temp;Humidity;BMP_temperature;BMP_pressure;BME280_temperature;BME280_humidity;BME280_pressure;Samples;Min_cycle;Max_cycle;Signal;HPM_P1;HPM_P2
2022/02/06 00:01:46;;;;;;;26.30;12.02;;;103.10;2124.80;;;;;;5093769;28;20032;-69
2022/02/06 00:04:13;;;;;;;22.65;11.65;;;103.00;2150.40;;;;;;5093503;28;20027;-69
2022/02/06 00:06:39;;;;;;;24.13;12.10;;;102.90;2176.00;;;;;;5093954;28;20095;-69
2022/02/06 00:09:05;;;;;;;27.10;13.32;;;102.80;2176.00;;;;;;5093612;28;20024;-69
2022/02/06 00:11:31;;;;;;;28.35;13.93;;;102.80;2176.00;;;;;;5092111;28;20024;-69
2022/02/06 00:13:57;;;;;;;27.90;13.85;;;102.70;2150.40;;;;;;5093397;28;20526;-69
2022/02/06 00:16:23;;;;;;;26.02;12.48;;;102.60;2150.40;;;;;;5093467;28;20418;-70
2022/02/06 00:18:49;;;;;;;26.10;13.27;;;102.60;2176.00;;;;;;5093472;28;20097;-69
2022/02/06 00:21:18;;;;;;;26.88;12.52;;;102.60;2227.20;;;;;;5093655;28;20082;-69
2022/02/06 00:23:47;;;;;;;26.05;13.32;;;102.60;2201.60;;;;;;5093501;28;20020;-69
2022/02/06 00:26:25;;;;;;;34.78;16.88;;;102.60;2176.00;;;;;;5093385;28;20026;-70
2022/02/06 00:29:12;;;;;;;43.20;22.77;;;102.50;2227.20;;;;;;5093238;28;20093;-69
2022/02/06 00:35:29;;;;;;;66.40;33.97;;;77.70;2227.20;;;;;;5093684;28;20051;-70
2022/02/06 00:40:04;;;;;;;81.70;40.20;;;77.60;2227.20;;;;;;5093145;28;20446;-70
2022/02/06 00:42:30;;;;;;;66.00;35.60;;;77.60;2227.20;;;;;;5093179;28;20039;-70
2022/02/06 00:44:56;;;;;;;72.97;36.03;;;77.50;2227.20;;;;;;5093521;28;20103;-70
2022/02/06 00:47:23;;;;;;;72.97;38.08;;;77.50;2227.20;;;;;;5093349;28;20028;-70
2022/02/06 00:49:49;;;;;;;75.78;40.10;;;77.60;2227.20;;;;;;5093229;28;20103;-70
2022/02/06 00:52:24;;;;;;;77.90;42.90;;;77.50;2227.20;;;;;;5093103;28;20027;-70
2022/02/06 00:54:50;;;;;;;81.50;43.00;;;77.30;2227.20;;;;;;5093510;28;20035;-69
2022/02/06 00:57:15;;;;;;;81.53;41.37;;;77.20;2227.20;;;;;;5093105;28;20028;-70
2022/02/06 00:59:43;;;;;;;77.17;39.20;;;77.10;2227.20;;;;;;5095407;28;20052;-70
2022/02/06 01:02:09;;;;;;;66.17;35.83;;;77.20;2227.20;;;;;;5096889;28;20090;-70
2022/02/06 01:04:35;;;;;;;60.57;34.37;;;77.10;2227.20;;;;;;5096898;28;20024;-69
2022/02/06 01:07:02;;;;;;;59.90;33.50;;;77.10;2227.20;;;;;;5096819;28;20028;-69
2022/02/06 01:09:28;;;;;;;53.27;28.87;;;77.10;2227.20;;;;;;5096803;28;20058;-70
2022/02/06 01:11:55;;;;;;;40.00;21.43;;;77.10;2227.20;;;;;;5097086;28;20063;-70
2022/02/06 01:19:26;;;;;;;53.70;29.17;;;77.10;2227.20;;;;;;5096695;28;20034;-63
2022/02/06 01:22:03;;;;;;;49.93;27.97;;;77.00;2227.20;;;;;;5096749;28;20063;-68
2022/02/06 01:27:21;;;;;;;46.50;26.00;;;76.90;2227.20;;;;;;5096864;28;20453;-68
2022/02/06 01:29:58;;;;;;;55.40;28.97;;;77.00;2227.20;;;;;;5096661;28;20024;-71
2022/02/06 01:32:32;;;;;;;45.87;27.07;;;77.00;2227.20;;;;;;5096370;28;20067;-68
2022/02/06 01:35:06;;;;;;;40.80;25.33;;;77.00;2227.20;;;;;;5096695;28;20030;-68
2022/02/06 01:37:45;;;;;;;34.97;18.83;;;77.00;2227.20;;;;;;5096459;28;20024;-68
2022/02/06 01:43:00;;;;;;;35.67;20.83;;;77.10;2227.20;;;;;;5096441;28;20449;-68
2022/02/06 01:45:35;;;;;;;;;;;77.00;2227.20;;;;;;5096587;28;20028;-68
2022/02/06 02:04:34;;;;;;;60.80;33.70;;;51.70;2227.20;;;;;;5096032;28;20028;-69
2022/02/06 02:15:28;;;;;;;43.47;22.67;;;51.70;2227.20;;;;;;5095243;28;20107;-68
2022/02/06 02:23:32;;;;;;;50.63;27.73;;;51.60;2227.20;;;;;;5095616;28;20416;-68
2022/02/06 02:28:10;;;;;;;53.53;29.37;;;51.40;2227.20;;;;;;5095312;28;20032;-68
2022/02/06 02:30:59;;;;;;;45.57;25.87;;;51.40;2227.20;;;;;;5094548;28;20020;-68
2022/02/06 02:45:09;;;;;;;76.10;37.63;;;51.20;2227.20;;;;;;5089937;28;20586;-68
2022/02/06 02:47:18;;;;;;;57.30;27.73;;;51.20;2227.20;;;;;;5091763;28;20035;-68
2022/02/06 02:49:59;;;;;;;52.53;27.00;;;51.30;2227.20;;;;;;5094818;28;20027;-68
2022/02/06 02:52:53;;;;;;;52.30;27.97;;;51.40;2227.20;;;;;;5094910;28;20495;-68
2022/02/06 02:55:39;;;;;;;56.07;27.37;;;51.20;2227.20;;;;;;5094815;28;20029;-68
2022/02/06 03:03:24;;;;;;;48.90;25.27;;;51.40;2227.20;;;;;;5094637;28;20045;-68
2022/02/06 03:05:52;;;;;;;51.07;26.30;;;51.30;2227.20;;;;;;5094668;28;20020;-68
2022/02/06 03:08:20;;;;;;;48.40;26.13;;;51.40;2227.20;;;;;;5094555;28;20024;-68
2022/02/06 03:10:46;;;;;;;44.33;24.60;;;51.40;2227.20;;;;;;5094527;28;20048;-68
2022/02/06 03:13:16;;;;;;;47.60;26.67;;;51.40;2227.20;;;;;;5094450;28;20028;-68
2022/02/06 03:15:49;;;;;;;49.77;28.40;;;51.30;2227.20;;;;;;5093099;28;20460;-68
2022/02/06 03:18:27;;;;;;;40.00;23.10;;;51.20;2227.20;;;;;;5094424;28;20043;-68
2022/02/06 03:20:54;;;;;;;33.47;19.40;;;51.30;2227.20;;;;;;5093883;28;20032;-68
2022/02/06 03:23:20;;;;;;;36.10;19.87;;;51.30;2227.20;;;;;;5094168;28;20387;-68
2022/02/06 03:25:53;;;;;;;33.50;19.80;;;51.40;2227.20;;;;;;5092795;28;20020;-68
2022/02/06 03:28:25;;;;;;;31.40;18.88;;;51.40;2227.20;;;;;;5094181;28;20028;-68
2022/02/06 03:30:52;;;;;;;34.97;20.03;;;51.30;2227.20;;;;;;5094203;28;20549;-68
2022/02/06 03:33:19;;;;;;;32.83;18.67;;;51.20;2227.20;;;;;;5092839;28;20032;-68
2022/02/06 03:35:46;;;;;;;39.00;23.27;;;26.50;2201.60;;;;;;5094074;28;20050;-68
2022/02/06 03:38:12;;;;;;;44.60;23.07;;;51.30;2227.20;;;;;;5093960;28;20440;-68
2022/02/06 03:40:53;;;;;;;46.23;23.50;;;51.30;2227.20;;;;;;5094026;28;20064;-68
2022/02/06 03:43:26;;;;;;;50.73;26.13;;;51.20;2227.20;;;;;;5093778;28;20020;-68
2022/02/06 03:46:07;;;;;;;45.53;23.63;;;51.20;2227.20;;;;;;5094258;28;20024;-68
2022/02/06 03:49:03;;;;;;;51.10;26.73;;;51.20;2227.20;;;;;;5094166;28;20034;-68
2022/02/06 03:51:22;;;;;;;48.83;23.20;;;51.20;2227.20;;;;;;5092410;28;20043;-68
2022/02/06 03:53:51;;;;;;;61.23;29.43;;;51.30;2227.20;;;;;;5093666;28;20021;-68
2022/02/06 03:56:20;;;;;;;44.13;24.90;;;51.30;2227.20;;;;;;5092470;28;20484;-68
2022/02/06 03:58:46;;;;;;;41.40;23.77;;;51.20;2227.20;;;;;;5093455;28;20024;-68
2022/02/06 04:01:12;;;;;;;40.03;23.43;;;26.50;2201.60;;;;;;5093672;28;20036;-68
2022/02/06 04:03:38;;;;;;;40.67;22.60;;;;;;;;;;5093873;28;20024;-68
2022/02/06 04:06:04;;;;;;;38.67;18.97;;;;;;;;;;5093644;28;20051;-68
2022/02/06 04:08:34;;;;;;;40.33;19.53;;;;;;;;;;5093615;28;20026;-68
2022/02/06 04:11:01;;;;;;;33.30;19.33;;;26.50;2201.60;;;;;;5093391;28;20103;-68
2022/02/06 04:13:28;;;;;;;32.03;19.30;;;26.40;2201.60;;;;;;5093830;28;20022;-68
2022/02/06 04:15:59;;;;;;;39.17;21.80;;;26.30;2201.60;;;;;;5093564;28;20016;-68
2022/02/06 04:18:46;;;;;;;36.63;20.63;;;26.20;2201.60;;;;;;5093398;28;20020;-68
2022/02/06 04:21:13;;;;;;;29.13;16.20;;;26.10;2201.60;;;;;;5093681;28;20067;-68
2022/02/06 04:23:39;;;;;;;33.87;16.23;;;26.00;2201.60;;;;;;5093414;28;20089;-68
2022/02/06 04:26:05;;;;;;;30.23;15.60;;;26.00;2201.60;;;;;;5092128;28;20032;-68
2022/02/06 04:28:31;;;;;;;30.00;14.43;;;26.00;2201.60;;;;;;5093427;28;20480;-68
2022/02/06 04:30:57;;;;;;;30.93;16.10;;;25.90;2201.60;;;;;;5093373;28;20066;-68
2022/02/06 04:33:23;;;;;;;39.70;20.63;;;26.00;2201.60;;;;;;5095595;28;20032;-68
2022/02/06 04:35:51;;;;;;;69.20;33.40;;;25.90;2201.60;;;;;;5097443;28;20039;-68
2022/02/06 04:46:35;;;;;;;64.50;36.23;;;25.90;2201.60;;;;;;5097365;28;20124;-68
2022/02/06 04:52:04;;;;;;;52.10;30.87;;;26.10;2201.60;;;;;;5034959;28;20091;-68
2022/02/06 05:16:17;;;;;;;38.10;20.80;;;26.30;2201.60;;;;;;5034552;28;20029;-68
2022/02/06 05:29:15;;;;;;;22.00;12.57;;;26.20;2201.60;;;;;;5096577;28;20024;-68
2022/02/06 05:32:11;;;;;;;24.07;13.33;;;26.30;2201.60;;;;;;5096220;28;20028;-68
2022/02/06 05:34:27;;;;;;;21.63;12.10;;;26.30;2201.60;;;;;;5096145;28;20021;-68
2022/02/06 05:36:53;;;;;;;19.90;12.10;;;26.30;2201.60;;;;;;5096297;28;20032;-67
2022/02/06 05:39:19;;;;;;;18.70;10.80;;;26.30;2201.60;;;;;;5096271;28;20020;-68
2022/02/06 05:41:45;;;;;;;21.33;12.37;;;26.30;2201.60;;;;;;5095970;28;20042;-68
2022/02/06 05:44:10;;;;;;;19.03;11.17;;;26.20;2201.60;;;;;;5095315;28;20107;-68
2022/02/06 05:46:36;;;;;;;22.33;11.60;;;26.20;2201.60;;;;;;5096058;28;20024;-68
2022/02/06 05:49:03;;;;;;;26.70;11.93;;;26.20;2201.60;;;;;;5096125;28;20047;-68
2022/02/06 05:51:29;;;;;;;28.37;12.80;;;26.30;2201.60;;;;;;5095937;28;20056;-67
2022/02/06 05:53:55;;;;;;;24.27;12.27;;;26.30;2201.60;;;;;;5096577;28;20365;-68
2022/02/06 05:56:22;;;;;;;22.10;11.53;;;26.40;2201.60;;;;;;5094473;28;20701;-68
2022/02/06 05:58:48;;;;;;;22.10;11.43;;;26.40;2201.60;;;;;;5095799;28;20059;-68
2022/02/06 06:01:14;;;;;;;26.40;12.63;;;26.50;2201.60;;;;;;5094555;28;20055;-68
2022/02/06 06:03:40;;;;;;;20.17;10.27;;;26.50;2201.60;;;;;;5095750;28;20433;-68
2022/02/06 06:06:06;;;;;;;18.07;8.77;;;26.50;2201.60;;;;;;5095542;28;20020;-68
2022/02/06 06:08:32;;;;;;;19.57;10.47;;;51.20;2227.20;;;;;;5095820;28;20016;-68
2022/02/06 06:10:58;;;;;;;24.67;11.07;;;51.20;2227.20;;;;;;5095663;28;20041;-68
2022/02/06 06:13:24;;;;;;;22.53;11.87;;;51.30;2227.20;;;;;;5095679;28;20027;-68
2022/02/06 06:15:50;;;;;;;31.63;16.60;;;51.30;2227.20;;;;;;5095559;28;20023;-68
2022/02/06 06:18:15;;;;;;;44.43;23.43;;;51.40;2227.20;;;;;;5095471;28;20031;-68
2022/02/06 06:20:44;;;;;;;65.93;30.40;;;51.40;2227.20;;;;;;5095395;28;20056;-67
2022/02/06 06:23:10;;;;;;;84.57;37.00;;;51.40;2227.20;;;;;;5093886;28;20073;-68
2022/02/06 06:25:39;;;;;;;349.20;150.43;;;51.40;2227.20;;;;;;5095370;28;20021;-68
2022/02/06 06:28:08;;;;;;;278.03;130.27;;;51.40;2227.20;;;;;;5095351;28;20452;-68
2022/02/06 06:30:35;;;;;;;228.53;102.00;;;51.40;2227.20;;;;;;5095962;28;20035;-68
2022/02/06 06:33:05;;;;;;;304.30;137.90;;;51.60;2227.20;;;;;;5095028;28;20099;-68
2022/02/06 06:35:31;;;;;;;187.30;90.27;;;51.50;2227.20;;;;;;5095205;28;20016;-68
2022/02/06 06:38:02;;;;;;;170.97;83.80;;;51.50;2227.20;;;;;;5094975;28;20099;-68
2022/02/06 06:40:29;;;;;;;126.40;66.30;;;51.50;2227.20;;;;;;5093745;28;20524;-69
2022/02/06 06:42:56;;;;;;;96.27;51.73;;;51.60;2227.20;;;;;;5093644;28;20050;-68
2022/02/06 06:45:22;;;;;;;95.20;46.43;;;51.70;2227.20;;;;;;5095080;28;20024;-69
2022/02/06 06:47:55;;;;;;;79.70;37.53;;;51.70;2227.20;;;;;;5094901;28;20035;-68
2022/02/06 06:50:25;;;;;;;116.45;48.58;;;51.70;2227.20;;;;;;5095201;28;20028;-68
2022/02/06 06:52:51;;;;;;;172.00;65.57;;;51.70;2227.20;;;;;;5094916;28;20111;-68
2022/02/06 06:55:19;;;;;;;126.37;50.07;;;51.80;2227.20;;;;;;5093432;28;20056;-68
2022/02/06 06:57:55;;;;;;;99.43;41.73;;;51.90;2227.20;;;;;;5094758;28;20024;-68
2022/02/06 07:02:47;;;;;;;122.20;46.70;;;52.00;2227.20;;;;;;5094956;28;20028;-68
2022/02/06 07:05:13;;;;;;;83.00;42.10;;;52.10;2227.20;;;;;;5094550;28;20039;-68
2022/02/06 07:07:39;;;;;;;74.53;41.07;;;76.80;2227.20;;;;;;5094600;28;20062;-71
2022/02/06 07:10:06;;;;;;;50.33;27.30;;;76.80;2227.20;;;;;;5094601;28;20106;-68
2022/02/06 07:12:32;;;;;;;58.43;27.63;;;76.90;2227.20;;;;;;5094319;28;20020;-68
2022/02/06 07:15:00;;;;;;;52.60;25.70;;;77.00;2227.20;;;;;;5094403;28;20038;-68
2022/02/06 07:17:26;;;;;;;51.73;27.13;;;77.10;2227.20;;;;;;5094403;28;20020;-68
2022/02/06 07:19:52;;;;;;;58.23;28.57;;;77.20;2227.20;;;;;;5094842;28;20081;-72
2022/02/06 07:22:19;;;;;;;59.17;29.50;;;77.20;2227.20;;;;;;5093286;28;20035;-69
2022/02/06 07:24:47;;;;;;;47.43;23.87;;;77.30;2227.20;;;;;;5092907;28;20069;-74
2022/02/06 07:27:19;;;;;;;41.30;22.37;;;77.40;2227.20;;;;;;5093530;28;20529;-69
2022/02/06 07:29:45;;;;;;;57.67;24.90;;;77.40;2227.20;;;;;;5093969;28;20020;-68
2022/02/06 07:32:11;;;;;;;64.72;30.83;;;77.70;2227.20;;;;;;5094218;28;20023;-69
2022/02/06 07:34:37;;;;;;;92.07;38.93;;;77.70;2227.20;;;;;;5093974;28;20020;-68
2022/02/06 07:37:04;;;;;;;88.53;38.50;;;102.40;2227.20;;;;;;5093283;28;20503;-63
2022/02/06 07:39:29;;;;;;;78.00;33.37;;;102.50;2227.20;;;;;;5092437;28;20072;-64
2022/02/06 07:41:55;;;;;;;65.30;29.23;;;102.60;2227.20;;;;;;5091204;28;20107;-65
2022/02/06 07:44:21;;;;;;;57.00;24.60;;;102.70;2227.20;;;;;;5091637;28;20027;-69
2022/02/06 07:46:48;;;;;;;46.20;23.75;;;102.80;2227.20;;;;;;5090591;28;20035;-65
2022/02/06 07:49:15;;;;;;;46.13;23.90;;;103.00;2201.60;;;;;;5092104;28;20066;-65
2022/02/06 07:51:42;;;;;;;45.55;22.23;;;103.10;2176.00;;;;;;5092022;28;20020;-65
2022/02/06 07:54:08;;;;;;;43.78;23.83;;;103.20;2176.00;;;;;;5091596;28;20024;-66
2022/02/06 07:56:34;;;;;;;48.38;28.63;;;103.30;2176.00;;;;;;5092229;28;20455;-65
2022/02/06 07:59:00;;;;;;;49.17;26.85;;;128.00;2201.60;;;;;;5091613;28;20434;-66
2022/02/06 08:01:26;;;;;;;50.75;28.75;;;128.10;2176.00;;;;;;5091380;28;20036;-65
2022/02/06 08:03:53;;;;;;;62.03;32.15;;;128.20;2176.00;;;;;;5092249;28;20388;-67
2022/02/06 08:06:19;;;;;;;69.95;35.67;;;128.30;2150.40;;;;;;5091701;28;20103;-66
2022/02/06 08:08:45;;;;;;;72.45;35.65;;;128.50;2176.00;;;;;;5090874;28;20102;-65
2022/02/06 08:11:15;;;;;;;57.47;27.80;;;128.70;2150.40;;;;;;5091650;28;20107;-65
2022/02/06 08:13:45;;;;;;;52.22;27.05;;;128.80;2124.80;;;;;;5090868;28;20120;-63
2022/02/06 08:16:11;;;;;;;62.22;27.92;;;153.60;2099.20;;;;;;5091168;28;20506;-68
2022/02/06 08:18:40;;;;;;;58.15;25.05;;;153.80;2048.00;;;;;;5091064;28;20039;-68
2022/02/06 08:21:06;;;;;;;48.08;23.33;;;153.90;2048.00;;;;;;5088701;28;20043;-68
2022/02/06 08:23:32;;;;;;;37.85;16.00;;;154.00;2022.40;;;;;;5091592;28;20046;-64
2022/02/06 08:25:58;;;;;;;28.83;14.50;;;154.10;1996.80;;;;;;5091664;28;20043;-65
2022/02/06 08:28:24;;;;;;;23.15;12.30;;;154.30;1996.80;;;;;;5092695;28;20020;-65
2022/02/06 08:30:50;;;;;;;45.63;13.43;;;154.50;1971.20;;;;;;5092559;28;20024;-65
2022/02/06 08:33:16;;;;;;;28.98;13.77;;;179.30;1971.20;;;;;;5090115;28;20060;-66
2022/02/06 08:35:43;;;;;;;31.50;14.38;;;179.60;1971.20;;;;;;5091955;28;20031;-66
2022/02/06 08:38:10;;;;;;;24.23;11.18;;;180.00;1971.20;;;;;;5091332;28;20081;-63
2022/02/06 08:40:36;;;;;;;15.30;7.95;;;204.80;1868.80;;;;;;5090665;28;20068;-63
2022/02/06 08:43:02;;;;;;;16.75;7.72;;;205.00;1766.40;;;;;;5091394;28;20044;-63
2022/02/06 08:45:29;;;;;;;22.23;9.15;;;205.20;1715.20;;;;;;5091377;28;20085;-63
2022/02/06 08:47:56;;;;;;;22.40;10.25;;;205.40;1715.20;;;;;;5091568;28;20483;-68
2022/02/06 08:50:23;;;;;;;16.67;9.13;;;205.60;1740.80;;;;;;5092197;28;20061;-64
2022/02/06 08:52:49;;;;;;;14.30;7.60;;;230.50;1612.80;;;;;;5091367;28;20034;-65
2022/02/06 08:55:17;;;;;;;16.75;8.02;;;230.70;1561.60;;;;;;5091320;28;20379;-64
2022/02/06 08:57:52;;;;;;;14.25;7.72;;;231.00;1536.00;;;;;;5091390;28;20012;-68
2022/02/06 09:00:21;;;;;;;12.45;6.60;;;231.20;1459.20;;;;;;5089363;28;20198;-67
2022/02/06 09:02:48;;;;;;;13.52;6.20;;;256.00;1459.20;;;;;;5088688;28;20053;-68
2022/02/06 09:05:14;;;;;;;15.93;7.82;;;;;;;;;;5091201;28;20024;-66
2022/02/06 09:07:42;;;;;;;34.50;14.90;;;256.60;1331.20;;;;;;5088758;28;20081;-66
2022/02/06 09:10:09;;;;;;;26.13;10.68;;;256.70;1817.60;;;;;;5092281;28;20020;-68
2022/02/06 09:12:40;;;;;;;67.60;32.00;;;256.60;1331.20;;;;;;5092467;28;20368;-65
2022/02/06 09:15:07;;;;;;;23.85;12.55;;;281.60;1356.80;;;;;;5092943;28;20028;-64
2022/02/06 09:17:32;;;;;;;24.40;13.23;;;282.00;1331.20;;;;;;5092786;28;20020;-64
2022/02/06 09:19:58;;;;;;;49.10;29.17;;;282.50;1331.20;;;;;;5094034;28;20387;-65
2022/02/06 09:22:24;;;;;;;24.90;12.63;;;307.30;1280.00;;;;;;5096091;28;20028;-63
2022/02/06 09:24:50;;;;;;;21.58;13.52;;;307.70;1228.80;;;;;;5096383;28;20097;-65
2022/02/06 09:27:16;;;;;;;18.00;10.90;;;308.10;1203.20;;;;;;5096113;28;20597;-64
2022/02/06 09:29:42;;;;;;;23.58;12.00;;;333.20;1152.00;;;;;;5096196;28;20032;-65
2022/02/06 09:37:07;;;;;;;28.73;13.45;;;435.60;921.60;;;;;;5096116;28;20025;-65
2022/02/06 09:39:37;;;;;;;28.85;12.93;;;;;;;;;;5096052;28;20028;-65
2022/02/06 09:42:05;;;;;;;27.50;13.63;;;563.50;716.80;;;;;;5095797;28;20060;-66
2022/02/06 09:44:31;;;;;;;25.85;11.52;;;564.00;716.80;;;;;;5095702;28;20488;-64
2022/02/06 09:46:58;;;;;;;17.35;9.63;;;588.80;691.20;;;;;;5094484;28;20021;-65
2022/02/06 09:49:26;;;;;;;21.83;12.38;;;614.90;640.00;;;;;;5095702;28;20455;-65
2022/02/06 09:51:52;;;;;;;20.98;13.10;;;;;;;;;;5095653;28;20590;-66
2022/02/06 09:54:20;;;;;;;21.13;7.38;;;691.90;512.00;;;;;;5095443;28;20043;-64
2022/02/06 09:56:48;;;;;;;14.43;8.07;;;691.50;512.00;;;;;;5095593;28;20491;-63
2022/02/06 09:59:18;;;;;;;19.75;11.70;;;666.10;512.00;;;;;;5095309;28;20161;-63
2022/02/06 10:01:55;;;;;;;18.35;12.05;;;691.30;512.00;;;;;;5095526;28;20032;-64
2022/02/06 10:04:26;;;;;;;14.20;8.23;;;691.50;512.00;;;;;;5095479;28;20012;-65
2022/02/06 10:07:05;;;;;;;11.15;7.00;;;717.30;512.00;;;;;;5095492;28;20491;-64
2022/02/06 10:09:35;;;;;;;10.48;6.47;;;742.70;537.60;;;;;;5095341;28;20407;-64
2022/02/06 10:12:02;;;;;;;15.85;8.95;;;793.90;512.00;;;;;;5094022;28;20380;-66
2022/02/06 10:14:29;;;;;;;12.10;8.05;;;794.20;435.20;;;;;;5095085;28;20020;-65
2022/02/06 10:16:55;;;;;;;9.32;6.53;;;793.90;460.80;;;;;;5095165;28;20031;-65
2022/02/06 10:19:21;;;;;;;17.02;6.35;;;794.10;460.80;;;;;;5094953;28;20020;-65
2022/02/06 10:21:47;;;;;;;13.98;5.40;;;794.30;486.40;;;;;;5095157;28;20090;-68
2022/02/06 10:24:23;;;;;;;8.10;6.03;;;819.20;435.20;;;;;;5094973;28;20396;-66
2022/02/06 10:27:06;;;;;;;11.40;7.35;;;768.10;486.40;;;;;;5093929;28;20388;-66
2022/02/06 10:29:50;;;;;;;15.25;9.30;;;742.70;486.40;;;;;;5095117;28;20025;-65
2022/02/06 10:32:18;;;;;;;13.93;7.45;;;743.00;460.80;;;;;;5094676;28;20028;-66
2022/02/06 10:34:45;;;;;;;13.30;8.98;;;;;;;;;;5094810;28;20027;-66
2022/02/06 10:37:14;;;;;;;15.68;9.45;;;717.10;512.00;;;;;;5094880;28;20475;-66
2022/02/06 10:40:02;;;;;;;9.85;6.00;;;640.20;563.20;;;;;;5094836;28;20498;-66
2022/02/06 10:42:36;;;;;;;13.90;7.78;;;614.50;563.20;;;;;;5094921;28;20077;-66
2022/02/06 10:45:29;;;;;;;11.43;6.07;;;563.40;665.60;;;;;;5094666;28;20035;-63
2022/02/06 10:47:56;;;;;;;17.40;8.80;;;512.60;665.60;;;;;;5094693;28;20028;-66
2022/02/06 10:50:27;;;;;;;8.48;4.70;;;512.20;691.20;;;;;;5094415;28;20031;-67
2022/02/06 10:53:05;;;;;;;12.52;6.50;;;512.70;665.60;;;;;;5094613;28;20020;-65
2022/02/06 10:55:31;;;;;;;11.02;5.43;;;538.00;640.00;;;;;;5094399;28;20026;-70
2022/02/06 10:57:59;;;;;;;7.75;3.85;;;538.40;640.00;;;;;;5094628;28;20411;-65
2022/02/06 11:00:34;;;;;;;15.90;8.23;;;588.80;640.00;;;;;;5094289;28;20040;-69
2022/02/06 11:03:28;;;;;;;13.07;7.72;;;563.60;665.60;;;;;;5094482;28;20016;-68
2022/02/06 11:05:55;;;;;;;;;;;;;;;;;;5094798;28;20487;-67
2022/02/06 11:08:29;;;;;;;10.30;5.40;;;512.10;665.60;;;;;;5094348;28;20328;-69
2022/02/06 11:11:08;;;;;;;10.48;6.53;;;487.00;691.20;;;;;;5094272;28;20047;-68
2022/02/06 11:13:34;;;;;;;18.95;8.82;;;487.20;691.20;;;;;;5094370;28;20384;-68
2022/02/06 11:16:09;;;;;;;12.98;3.88;;;461.70;691.20;;;;;;5093898;28;20027;-67
2022/02/06 11:18:48;;;;;;;6.03;3.20;;;435.40;742.40;;;;;;5094256;28;20036;-66
2022/02/06 11:21:17;;;;;;;4.80;2.75;;;410.10;768.00;;;;;;5094024;28;20032;-66
2022/02/06 11:23:48;;;;;;;6.57;3.10;;;410.40;768.00;;;;;;5093944;28;20020;-67
2022/02/06 11:26:27;;;;;;;9.38;5.13;;;461.20;716.80;;;;;;5093932;28;20358;-68
2022/02/06 11:28:57;;;;;;;9.10;5.68;;;563.80;614.40;;;;;;5094048;28;20020;-68
2022/02/06 11:31:23;;;;;;;13.85;7.57;;;461.60;691.20;;;;;;5093915;28;20017;-69
2022/02/06 11:33:50;;;;;;;13.93;7.70;;;487.20;691.20;;;;;;5093875;28;20548;-67
2022/02/06 11:36:25;;;;;;;16.50;9.88;;;512.00;691.20;;;;;;5093686;28;20055;-66
2022/02/06 11:44:52;;;;;;;15.68;7.93;;;486.70;691.20;;;;;;5093650;28;20093;-67
2022/02/06 11:47:22;;;;;;;9.30;4.55;;;410.40;742.40;;;;;;5093631;28;20023;-67
2022/02/06 11:49:52;;;;;;;6.30;3.13;;;384.60;793.60;;;;;;5093689;28;20046;-67
2022/02/06 11:52:18;;;;;;;6.50;3.10;;;359.30;793.60;;;;;;5093570;28;20020;-66
2022/02/06 11:54:49;;;;;;;11.45;6.32;;;359.20;819.20;;;;;;5093405;28;20089;-68
2022/02/06 11:57:27;;;;;;;7.75;5.00;;;358.90;844.80;;;;;;5093547;28;20016;-68
2022/02/06 12:02:33;;;;;;;8.85;4.43;;;358.80;844.80;;;;;;5093694;28;20400;-67
2022/02/06 12:05:12;;;;;;;18.48;8.35;;;358.90;844.80;;;;;;5093123;28;20031;-68
2022/02/06 12:08:04;;;;;;;29.70;19.50;;;359.10;844.80;;;;;;5091588;28;20043;-67
2022/02/06 12:10:33;;;;;;;17.40;10.43;;;359.00;819.20;;;;;;5093571;28;20022;-67
2022/02/06 12:13:26;;;;;;;24.15;10.77;;;359.10;870.40;;;;;;5092056;28;20365;-69
2022/02/06 12:15:58;;;;;;;10.90;3.50;;;359.10;870.40;;;;;;5092805;28;20030;-67
2022/02/06 12:18:36;;;;;;;11.93;6.35;;;359.10;844.80;;;;;;5093376;28;20016;-66
2022/02/06 12:21:22;;;;;;;17.05;8.10;;;359.20;819.20;;;;;;5093194;28;20484;-65
2022/02/06 12:23:59;;;;;;;20.23;9.07;;;359.30;870.40;;;;;;5093271;28;20185;-65
2022/02/06 12:26:29;;;;;;;18.38;6.82;;;359.20;870.40;;;;;;5092407;28;20435;-66
2022/02/06 12:29:20;;;;;;;12.45;3.75;;;359.20;896.00;;;;;;5093079;28;20051;-63
2022/02/06 12:31:48;;;;;;;21.45;8.38;;;359.10;870.40;;;;;;5092856;28;20032;-66
2022/02/06 12:37:28;;;;;;;11.52;5.10;;;359.20;870.40;;;;;;5092851;28;20039;-71
2022/02/06 12:40:02;;;;;;;13.35;6.97;;;359.00;870.40;;;;;;5091849;28;20036;-73
2022/02/06 12:42:31;;;;;;;10.05;4.93;;;359.20;921.60;;;;;;5092922;28;20441;-70
2022/02/06 12:44:58;;;;;;;26.20;9.23;;;384.00;896.00;;;;;;5092860;28;20020;-70
2022/02/06 12:47:26;;;;;;;4.50;3.17;;;435.20;844.80;;;;;;5092560;28;20142;-70
2022/02/06 12:49:53;;;;;;;10.88;5.60;;;486.50;793.60;;;;;;5092771;28;20024;-71
2022/02/06 12:52:19;;;;;;;10.88;7.00;;;486.90;768.00;;;;;;5091507;28;20055;-71
2022/02/06 12:54:45;;;;;;;12.23;6.93;;;461.20;1203.20;;;;;;5095090;28;20020;-69
2022/02/06 12:57:11;;;;;;;10.85;5.35;;;538.20;716.80;;;;;;5095924;28;20038;-70
2022/02/06 12:59:40;;;;;;;15.75;9.55;;;512.00;768.00;;;;;;5096684;28;20051;-70
2022/02/06 13:02:08;;;;;;;12.40;7.15;;;512.90;716.80;;;;;;5096311;28;20036;-69
2022/02/06 13:04:41;;;;;;;17.30;6.72;;;563.20;742.40;;;;;;5096998;28;20379;-70
2022/02/06 13:07:07;;;;;;;8.27;5.90;;;537.90;921.60;;;;;;5095184;28;20024;-70
2022/02/06 13:09:39;;;;;;;9.30;5.10;;;537.60;742.40;;;;;;5096219;28;20031;-69
2022/02/06 13:20:19;;;;;;;10.80;6.85;;;537.80;742.40;;;;;;5096637;28;20613;-69
2022/02/06 13:28:36;;;;;;;31.67;15.30;;;512.00;819.20;;;;;;5097070;28;20060;-69
2022/02/06 13:33:55;;;;;;;18.02;9.38;;;563.60;742.40;;;;;;5096222;28;20031;-69
2022/02/06 13:38:57;;;;;;;11.02;6.28;;;538.00;768.00;;;;;;5096492;28;19904;-69
2022/02/06 13:41:28;;;;;;;17.00;9.68;;;538.10;819.20;;;;;;5096009;28;20040;-69
2022/02/06 13:43:57;;;;;;;9.40;6.68;;;563.70;742.40;;;;;;5096117;28;20024;-70
2022/02/06 13:46:27;;;;;;;27.30;18.70;;;563.70;716.80;;;;;;5095872;28;20101;-69
2022/02/06 13:48:54;;;;;;;13.48;9.02;;;563.70;716.80;;;;;;5095971;28;20031;-69
2022/02/06 13:51:30;;;;;;;11.48;8.05;;;;;;;;;;5096090;28;20028;-70
2022/02/06 13:54:02;;;;;;;27.00;16.73;;;589.20;742.40;;;;;;5095984;28;20026;-69
2022/02/06 13:56:28;;;;;;;18.97;7.00;;;589.40;716.80;;;;;;5095660;28;20126;-69
2022/02/06 13:59:02;;;;;;;10.93;7.25;;;589.30;742.40;;;;;;5095644;28;20273;-69
2022/02/06 14:01:45;;;;;;;;;;;589.30;742.40;;;;;;5096057;28;20032;-69
2022/02/06 14:04:19;;;;;;;9.27;6.47;;;589.40;742.40;;;;;;5095655;28;19904;-69
2022/02/06 14:06:55;;;;;;;10.05;7.38;;;614.60;716.80;;;;;;5094957;28;20078;-69
2022/02/06 14:09:31;;;;;;;8.32;6.35;;;589.50;742.40;;;;;;5095545;28;20499;-70
2022/02/06 14:12:06;;;;;;;9.55;6.10;;;614.50;742.40;;;;;;5095658;28;20545;-70
2022/02/06 14:14:34;;;;;;;7.82;5.10;;;589.10;716.80;;;;;;5095463;28;20028;-70
2022/02/06 14:17:00;;;;;;;12.95;8.57;;;588.80;768.00;;;;;;5095177;28;20032;-70
2022/02/06 14:19:47;;;;;;;13.70;8.32;;;563.70;972.80;;;;;;5095316;28;20086;-69
2022/02/06 14:22:29;;;;;;;13.57;8.57;;;538.10;768.00;;;;;;5095506;28;20468;-69
2022/02/06 14:24:58;;;;;;;14.45;7.35;;;537.60;793.60;;;;;;5094103;28;20032;-69
2022/02/06 14:27:35;;;;;;;12.63;7.35;;;512.60;819.20;;;;;;5095004;28;20028;-69
2022/02/06 14:30:10;;;;;;;13.77;8.98;;;512.80;793.60;;;;;;5095422;28;20023;-69
2022/02/06 14:32:53;;;;;;;12.32;8.30;;;461.50;896.00;;;;;;5095214;28;20028;-72
2022/02/06 14:35:22;;;;;;;14.27;8.57;;;;;;;;;;5095091;28;20111;-68
2022/02/06 14:37:54;;;;;;;14.02;8.95;;;409.80;1075.20;;;;;;5094873;28;20013;-68
2022/02/06 14:43:12;;;;;;;15.60;9.23;;;384.10;1126.40;;;;;;5094923;28;20448;-67
2022/02/06 14:45:58;;;;;;;20.95;11.73;;;359.20;1152.00;;;;;;5094935;28;20017;-70
2022/02/06 14:48:27;;;;;;;30.23;16.70;;;359.00;1228.80;;;;;;5093159;28;20489;-67
2022/02/06 14:50:53;;;;;;;27.17;12.73;;;358.80;1280.00;;;;;;5095401;28;20024;-69
2022/02/06 14:53:21;;;;;;;24.67;12.35;;;358.70;1203.20;;;;;;5096763;28;20067;-69
2022/02/06 14:55:52;;;;;;;20.83;10.20;;;358.40;1228.80;;;;;;5104579;28;20018;-69
2022/02/06 14:58:19;;;;;;;21.85;11.00;;;358.40;1228.80;;;;;;5092434;28;20456;-72